Time;durP1;ratioP1;P1;durP2;ratioP2;P2;SDS_P1;SDS_P2;PMS_P1;PMS_P2;Temp;Humidity;BMP_temperature;BMP_pressure;BME280_temperature;BME280_humidity;BME280_pressure;Samples;Min_cycle;Max_cycle;Signal;HPM_P1;HPM_P2
2022/12/27 00:00:22;;;;;;;;;;;;;;;5.76;66.25;98589.84;5108230;28;19924;-68
2022/12/27 00:03:15;;;;;;;;;;;;;;;5.69;65.53;98584.66;5135002;27;19972;-68
2022/12/27 00:05:46;;;;;;;;;;;;;;;5.68;65.50;98599.22;5131159;27;19924;-68
2022/12/27 00:08:14;;;;;;;;;;;;;;;5.61;65.17;98590.56;5114454;27;20257;-69
2022/12/27 00:10:45;;;;;;;;;;;;;;;5.55;64.53;98599.72;5129109;27;19923;-69
2022/12/27 00:13:14;;;;;;;;;;;;;;;5.49;64.44;98604.25;5134013;27;19923;-68
2022/12/27 00:15:43;;;;;;;;;;;;;;;5.38;63.28;98610.66;5123270;27;19927;-69
2022/12/27 00:18:11;;;;;;;;;;;;;;;5.40;62.53;98610.41;5130710;27;19938;-68
2022/12/27 00:20:40;;;;;;;;;;;;;;;5.34;62.14;98620.34;5127773;27;19958;-69
2022/12/27 00:23:07;;;;;;;;;;;;;;;5.22;61.91;98636.69;5116138;27;19937;-69
2022/12/27 00:25:35;;;;;;;;;;;;;;;5.21;62.16;98632.34;5124254;27;19924;-69
2022/12/27 00:28:18;;;;;;;;;;;;;;;5.12;61.07;98649.28;5134189;27;19924;-70
2022/12/27 00:30:46;;;;;;;;;;;;;;;5.15;60.41;98649.56;5111248;27;19923;-69
2022/12/27 00:33:14;;;;;;;;;;;;;;;5.00;60.89;98658.31;5132131;27;20269;-68
2022/12/27 00:35:42;;;;;;;;;;;;;;;5.00;60.62;98658.31;5127900;27;20382;-68
2022/12/27 00:38:10;;;;;;;;;;;;;;;4.99;59.62;98659.38;5128317;27;19931;-68
2022/12/27 00:40:38;;;;;;;;;;;;;;;4.97;60.42;98666.91;5132185;27;20625;-69
2022/12/27 00:43:06;;;;;;;;;;;;;;;4.92;60.96;98674.16;5108377;27;19923;-69
2022/12/27 00:45:36;;;;;;;;;;;;;;;4.90;61.02;98669.03;5107520;27;19931;-68
2022/12/27 00:48:04;;;;;;;;;;;;;;;4.85;59.36;98673.56;5131795;27;19928;-68
2022/12/27 00:50:32;;;;;;;;;;;;;;;4.78;59.85;98683.69;5132846;27;19923;-69
2022/12/27 00:53:00;;;;;;;;;;;;;;;4.66;60.93;98684.66;5131321;27;19930;-69
2022/12/27 00:55:29;;;;;;;;;;;;;;;4.71;60.32;98689.28;5133986;27;19976;-69
2022/12/27 00:57:57;;;;;;;;;;;;;;;4.66;60.60;98698.13;5124281;27;19924;-69
2022/12/27 01:00:25;;;;;;;;;;;;;;;4.47;61.53;98699.50;5128740;27;19923;-70
2022/12/27 01:03:17;;;;;;;;;;;;;;;4.59;61.05;98704.78;5136471;27;19968;-68
2022/12/27 01:05:47;;;;;;;;;;;;;;;4.49;62.14;98705.47;5128547;27;19973;-71
2022/12/27 01:08:15;;;;;;;;;;;;;;;4.50;61.30;98706.28;5116091;27;20272;-69
2022/12/27 01:10:44;;;;;;;;;;;;;;;4.39;61.90;98711.56;5132725;27;19923;-70
2022/12/27 01:13:12;;;;;;;;;;;;;;;4.33;61.91;98722.50;5113571;27;19934;-68
2022/12/27 01:15:41;;;;;;;;;;;;;;;4.39;61.65;98716.13;5121210;27;19927;-69
2022/12/27 01:18:10;;;;;;;;;;;;;;;4.35;61.63;98728.44;5134653;27;19940;-69
2022/12/27 01:20:38;;;;;;;;;;;;;;;4.27;62.44;98720.81;5113442;27;19925;-69
2022/12/27 01:23:08;;;;;;;;;;;;;;;4.23;61.51;98725.06;5133777;27;20310;-69
2022/12/27 01:25:36;;;;;;;;;;;;;;;4.11;62.55;98746.72;5121600;27;19927;-69
2022/12/27 01:28:05;;;;;;;;;;;;;;;4.17;62.77;98746.53;5131750;27;19959;-69
2022/12/27 01:30:33;;;;;;;;;;;;;;;4.15;62.19;98759.38;5109583;27;19947;-68
2022/12/27 01:33:01;;;;;;;;;;;;;;;4.07;62.19;98765.19;5132947;27;20399;-69
2022/12/27 01:35:29;;;;;;;;;;;;;;;4.06;62.87;98770.84;5129798;27;19923;-69
2022/12/27 01:37:57;;;;;;;;;;;;;;;4.07;61.79;98780.53;5125987;27;19923;-68
2022/12/27 01:40:27;;;;;;;;;;;;;;;4.10;61.54;98785.38;5132236;27;19935;-69
2022/12/27 01:42:57;;;;;;;;;;;;;;;3.92;62.42;98797.25;5123959;27;19930;-69
2022/12/27 01:45:25;;;;;;;;;;;;;;;3.97;62.44;98791.94;5122672;27;19980;-69
2022/12/27 01:47:54;;;;;;;;;;;;;;;3.96;62.20;98801.06;5129907;27;19924;-69
2022/12/27 01:50:25;;;;;;;;;;;;;;;3.99;60.56;98803.25;5129321;27;19923;-69
2022/12/27 01:52:55;;;;;;;;;;;;;;;3.84;61.73;98813.81;5126299;27;20376;-69
2022/12/27 01:55:25;;;;;;;;;;;;;;;3.89;62.00;98813.88;5128823;27;19923;-70
2022/12/27 01:57:55;;;;;;;;;;;;;;;3.90;62.79;98810.13;5126650;27;19924;-69
2022/12/27 02:00:23;;;;;;;;;;;;;;;3.90;62.31;98813.63;5103180;27;19931;-69
2022/12/27 02:05:46;;;;;;;;;;;;;;;3.70;63.22;98821.38;5110966;27;20368;-69
2022/12/27 02:08:17;;;;;;;;;;;;;;;3.80;62.48;98816.16;5131946;27;19923;-69
2022/12/27 02:10:45;;;;;;;;;;;;;;;3.84;62.16;98830.75;5132581;27;20364;-69
2022/12/27 02:13:15;;;;;;;;;;;;;;;3.68;63.14;98835.06;5131180;27;19930;-69
2022/12/27 02:15:43;;;;;;;;;;;;;;;3.92;61.99;98840.25;5121328;27;20413;-68
2022/12/27 02:18:11;;;;;;;;;;;;;;;3.76;61.13;98841.88;5128158;27;19938;-69
2022/12/27 02:20:46;;;;;;;;;;;;;;;3.79;61.76;98845.97;5124109;27;19935;-70
2022/12/27 02:26:42;;;;;;;;;;;;;;;3.66;61.42;98850.59;5106900;27;19945;-70
2022/12/27 02:32:08;;;;;;;;;;;;;;;3.62;61.04;98846.78;5109323;27;19930;-69
2022/12/27 02:34:38;;;;;;;;;;;;;;;3.61;60.65;98847.81;5131506;27;19951;-69
2022/12/27 02:37:07;;;;;;;;;;;;;;;3.52;61.11;98854.66;5138767;27;19928;-69
2022/12/27 02:53:02;;;;;;;;;;;;;;;3.40;62.14;98865.44;5131141;27;20061;-69
2022/12/27 02:54:00;;;;;;;;;;;;;;;3.40;62.26;98875.38;5105792;27;20004;-69
2022/12/27 02:59:21;;;;;;;;;;;;;;;3.34;62.10;98877.16;5089029;28;19923;-69
2022/12/27 03:04:46;;;;;;;;;;;;;;;3.35;62.08;98896.78;5097287;28;19962;-69
2022/12/27 03:07:17;;;;;;;;;;;;;;;3.32;62.69;98890.03;5099516;28;19927;-69
2022/12/27 03:15:57;;;;;;;;;;;;;;;3.19;62.97;98895.66;5098673;28;19993;-69
2022/12/27 03:18:31;;;;;;;;;;;;;;;3.19;62.87;98890.31;5104115;28;19924;-70
2022/12/27 03:26:32;;;;;;;;;;;;;;;3.11;63.55;98909.50;5105186;28;19924;-69
2022/12/27 03:34:37;;;;;;;;;;;;;;;3.14;63.03;98923.25;5109994;28;19947;-69
2022/12/27 03:39:55;;;;;;;;;;;;;;;2.96;64.52;98918.03;5108365;28;19923;-69
2022/12/27 03:45:09;;;;;;;;;;;;;;;2.91;64.75;98922.50;5094907;28;20030;-69
2022/12/27 03:48:01;;;;;;;;;;;;;;;2.84;65.25;98909.22;5093817;28;19934;-69
2022/12/27 03:50:31;;;;;;;;;;;;;;;2.93;65.25;98918.53;5105979;28;19966;-69
2022/12/27 03:53:01;;;;;;;;;;;;;;;2.75;65.54;98921.34;5092217;28;20339;-69
2022/12/27 03:55:29;;;;;;;;;;;;;;;2.92;65.05;98927.63;5102131;28;19932;-69
2022/12/27 03:58:00;;;;;;;;;;;;;;;2.77;65.95;98935.34;5079212;28;19931;-70
2022/12/27 04:00:33;;;;;;;;;;;;;;;2.86;65.77;98932.06;5067776;28;19994;-69
2022/12/27 04:03:26;;;;;;;;;;;;;;;2.79;65.98;98927.88;5083132;28;20360;-69
2022/12/27 04:05:58;;;;;;;;;;;;;;;2.71;66.44;98925.56;5089260;28;20258;-69
2022/12/27 04:36:35;;;;;;;;;;;;;;;2.75;69.71;98942.81;5074007;28;19924;-69
2022/12/27 04:39:05;;;;;;;;;;;;;;;2.71;69.25;98942.47;5084068;28;20289;-69
2022/12/27 04:55:27;;;;;;;;;;;;;;;2.80;70.30;98949.09;5082516;27;19968;-69
2022/12/27 04:57:55;;;;;;;;;;;;;;;2.92;70.02;98959.00;5134306;27;20027;-69
2022/12/27 05:03:40;;;;;;;;;;;;;;;2.89;69.55;98963.00;5126393;27;20305;-69
2022/12/27 05:06:09;;;;;;;;;;;;;;;2.77;70.17;98968.38;5135482;27;19993;-69
2022/12/27 05:14:11;;;;;;;;;;;;;;;2.70;70.69;98970.34;5126732;27;19978;-69
2022/12/27 05:16:40;;;;;;;;;;;;;;;2.68;71.12;98972.47;5122057;27;19932;-69
2022/12/27 05:19:10;;;;;;;;;;;;;;;2.74;70.28;98976.06;5132002;27;19928;-68
2022/12/27 05:25:33;;;;;;;;;;;;;;;2.79;71.01;98973.50;5129626;27;19984;-69
2022/12/27 05:27:18;;;;;;;;;;;;;;;2.77;71.44;98975.59;5130269;27;20378;-69
2022/12/27 05:29:46;;;;;;;;;;;;;;;2.61;71.75;98983.31;5121553;27;19931;-69
2022/12/27 05:32:14;;;;;;;;;;;;;;;2.78;71.82;98986.13;5106841;27;19930;-69
2022/12/27 05:34:42;;;;;;;;;;;;;;;2.69;71.93;98975.97;5125619;27;19931;-69
2022/12/27 05:37:35;;;;;;;;;;;;;;;2.72;71.89;98976.31;5120100;27;19923;-69
2022/12/27 05:40:04;;;;;;;;;;;;;;;2.69;72.42;98981.31;5120451;27;19931;-69
2022/12/27 05:42:33;;;;;;;;;;;;;;;3.02;71.32;98964.59;5121031;27;19927;-69
2022/12/27 05:45:02;;;;;;;;;;;;;;;2.89;70.91;98977.22;5121987;27;19928;-69
2022/12/27 05:50:23;;;;;;;;;;;;;;;2.79;71.51;98970.81;5121821;27;20352;-69
2022/12/27 05:52:51;;;;;;;;;;;;;;;2.70;72.01;98972.22;5111664;27;20381;-69
2022/12/27 05:55:19;;;;;;;;;;;;;;;2.61;72.12;98974.47;5097659;28;19924;-69
2022/12/27 05:57:49;;;;;;;;;;;;;;;2.63;72.32;98977.72;5099744;27;19927;-69
2022/12/27 06:00:17;;;;;;;;;;;;;;;2.69;72.32;98975.97;5095644;28;20388;-68
2022/12/27 06:02:48;;;;;;;;;;;;;;;2.76;71.75;98973.97;5094032;28;19989;-69
2022/12/27 06:05:16;;;;;;;;;;;;;;;2.71;72.15;98981.91;5108393;27;20300;-73
2022/12/27 06:07:44;;;;;;;;;;;;;;;2.70;72.26;98977.59;5108826;27;19978;-69
2022/12/27 06:10:12;;;;;;;;;;;;;;;2.72;72.03;98991.59;5090850;28;19954;-69
2022/12/27 06:12:40;;;;;;;;;;;;;;;2.67;72.29;98986.94;5104111;27;19930;-68
2022/12/27 06:15:10;;;;;;;;;;;;;;;2.69;73.08;98975.97;5098883;28;19931;-69
2022/12/27 06:17:45;;;;;;;;;;;;;;;2.68;72.39;98985.06;5099721;28;19923;-69
2022/12/27 06:20:14;;;;;;;;;;;;;;;2.74;72.00;98989.50;5096463;27;19928;-69
2022/12/27 06:22:41;;;;;;;;;;;;;;;2.63;72.62;98989.25;5102118;27;19924;-69
2022/12/27 06:25:16;;;;;;;;;;;;;;;2.67;73.17;98986.13;5105366;28;20392;-69
2022/12/27 06:27:44;;;;;;;;;;;;;;;2.69;72.88;98994.75;5095983;27;19924;-73
2022/12/27 06:30:14;;;;;;;;;;;;;;;2.84;72.44;98997.78;5099569;28;19932;-69
2022/12/27 06:32:42;;;;;;;;;;;;;;;2.76;73.60;98988.19;5102860;27;20038;-69
2022/12/27 06:35:10;;;;;;;;;;;;;;;2.79;72.75;98992.28;5109158;27;19972;-69
2022/12/27 06:37:39;;;;;;;;;;;;;;;2.77;72.92;98989.84;5083177;28;20289;-68
2022/12/27 06:40:07;;;;;;;;;;;;;;;2.79;72.64;99003.03;5105725;28;19931;-68
2022/12/27 06:42:35;;;;;;;;;;;;;;;2.76;72.76;98998.13;5097737;28;19928;-69
2022/12/27 06:45:04;;;;;;;;;;;;;;;2.73;72.79;99009.34;5102327;28;20509;-69
2022/12/27 06:50:26;;;;;;;;;;;;;;;2.51;74.69;99007.22;5089685;28;21633;-69
2022/12/27 06:52:54;;;;;;;;;;;;;;;2.46;74.92;99015.16;5098883;28;20016;-68
2022/12/27 06:55:22;;;;;;;;;;;;;;;2.86;72.90;99017.13;5088054;28;19924;-69
2022/12/27 06:57:50;;;;;;;;;;;;;;;2.71;73.42;99016.78;5096255;28;20464;-69
2022/12/27 07:00:19;;;;;;;;;;;;;;;2.69;73.34;99024.25;5094892;28;19934;-69
2022/12/27 07:02:49;;;;;;;;;;;;;;;2.63;74.13;99020.63;5096378;28;19939;-69
2022/12/27 07:05:17;;;;;;;;;;;;;;;2.61;74.20;99028.94;5103070;28;19923;-62
2022/12/27 07:07:45;;;;;;;;;;;;;;;2.57;74.77;99030.44;5104620;28;19930;-62
2022/12/27 07:10:13;;;;;;;;;;;;;;;2.64;74.40;99027.63;5108286;28;19994;-62
2022/12/27 07:12:41;;;;;;;;;;;;;;;2.62;74.23;99035.91;5112419;27;19931;-63
2022/12/27 07:15:09;;;;;;;;;;;;;;;2.70;74.17;99040.13;5104103;28;20030;-62
2022/12/27 07:17:38;;;;;;;;;;;;;;;2.79;74.47;99036.03;5101002;28;19942;-70
2022/12/27 07:20:08;;;;;;;;;;;;;;;2.91;73.59;99049.47;5097037;28;19927;-62
2022/12/27 07:22:36;;;;;;;;;;;;;;;2.90;73.41;99045.16;5107994;28;19934;-62
2022/12/27 07:25:30;;;;;;;;;;;;;;;2.96;72.86;99051.44;5094945;28;20397;-62
2022/12/27 07:27:59;;;;;;;;;;;;;;;2.96;73.34;99062.19;5097854;28;19924;-62
2022/12/27 07:30:28;;;;;;;;;;;;;;;3.09;72.40;99062.78;5092033;28;20384;-62
2022/12/27 07:32:56;;;;;;;;;;;;;;;2.93;73.30;99059.94;5098534;28;19993;-62
2022/12/27 07:35:25;;;;;;;;;;;;;;;2.94;73.38;99059.75;5095829;28;19931;-62
2022/12/27 07:37:53;;;;;;;;;;;;;;;2.95;73.27;99057.88;5103336;28;19928;-62
2022/12/27 07:40:22;;;;;;;;;;;;;;;2.87;73.45;99053.66;5108543;28;19924;-62
2022/12/27 07:42:50;;;;;;;;;;;;;;;2.93;73.88;99059.94;5102471;28;19924;-62
2022/12/27 07:45:20;;;;;;;;;;;;;;;2.98;73.38;99063.56;5097569;27;20304;-63
2022/12/27 07:47:48;;;;;;;;;;;;;;;2.87;74.03;99059.84;5090942;28;19931;-62
2022/12/27 07:50:16;;;;;;;;;;;;;;;2.90;74.34;99063.94;5103287;28;19931;-62
2022/12/27 07:52:45;;;;;;;;;;;;;;;2.98;73.94;99066.25;5102050;28;19932;-62
2022/12/27 07:55:14;;;;;;;;;;;;;;;3.11;73.59;99066.03;5081489;28;19946;-62
2022/12/27 07:57:42;;;;;;;;;;;;;;;3.09;73.27;99070.84;5103300;28;19989;-62
2022/12/27 08:00:11;;;;;;;;;;;;;;;3.11;73.39;99063.34;5092340;28;20351;-62
2022/12/27 08:02:39;;;;;;;;;;;;;;;3.21;72.90;99060.06;5100846;28;19925;-62
2022/12/27 08:05:07;;;;;;;;;;;;;;;3.17;73.11;99055.41;5100163;28;19928;-62
2022/12/27 08:07:35;;;;;;;;;;;;;;;3.18;73.45;99059.72;5102415;28;20024;-62
2022/12/27 08:10:05;;;;;;;;;;;;;;;3.24;73.56;99064.16;5101941;28;19932;-62
2022/12/27 08:12:34;;;;;;;;;;;;;;;3.19;73.71;99066.72;5092683;28;19963;-62
2022/12/27 08:15:03;;;;;;;;;;;;;;;3.25;73.18;99072.00;5084841;28;20748;-62
2022/12/27 08:17:31;;;;;;;;;;;;;;;3.34;72.46;99064.38;5110629;28;19928;-62
2022/12/27 08:19:59;;;;;;;;;;;;;;;3.46;72.33;99075.91;5100245;28;19928;-62
2022/12/27 08:22:29;;;;;;;;;;;;;;;3.30;73.48;99071.25;5104275;27;19924;-62
2022/12/27 08:24:59;;;;;;;;;;;;;;;3.44;72.90;99075.34;5088396;28;19931;-62
2022/12/27 08:27:29;;;;;;;;;;;;;;;3.40;72.89;99076.84;5100235;27;19931;-62
2022/12/27 08:29:56;;;;;;;;;;;;;;;3.52;72.77;99066.91;5104626;28;19947;-62
2022/12/27 08:32:25;;;;;;;;;;;;;;;3.50;72.76;99066.31;5109775;27;20340;-62
2022/12/27 08:34:53;;;;;;;;;;;;;;;3.52;72.60;99066.91;5103742;27;19923;-62
2022/12/27 08:37:24;;;;;;;;;;;;;;;3.56;72.77;99067.25;5109885;28;19923;-62
2022/12/27 08:39:53;;;;;;;;;;;;;;;3.50;73.39;99071.69;5107435;27;19931;-62
2022/12/27 08:42:26;;;;;;;;;;;;;;;3.55;72.63;99074.50;5112746;28;20361;-62
2022/12/27 08:44:55;;;;;;;;;;;;;;;3.71;72.27;99077.50;5084749;27;19935;-62
2022/12/27 08:47:23;;;;;;;;;;;;;;;3.67;72.66;99069.94;5107165;27;19924;-62
2022/12/27 08:49:51;;;;;;;;;;;;;;;3.66;72.20;99060.19;5106099;28;19928;-62
2022/12/27 08:52:19;;;;;;;;;;;;;;;3.70;72.21;99065.94;5099682;27;19924;-62
2022/12/27 08:55:12;;;;;;;;;;;;;;;3.82;72.00;99066.69;5099451;27;19932;-62
2022/12/27 08:57:40;;;;;;;;;;;;;;;3.82;71.95;99076.63;5112239;28;19924;-62
2022/12/27 09:00:10;;;;;;;;;;;;;;;3.96;71.55;99078.00;5099653;28;19924;-62
2022/12/27 09:02:39;;;;;;;;;;;;;;;3.92;71.28;99091.09;5103615;28;19958;-62
2022/12/27 09:05:07;;;;;;;;;;;;;;;3.93;71.57;99083.84;5110719;28;19927;-62
2022/12/27 09:07:35;;;;;;;;;;;;;;;3.97;72.13;99093.06;5097903;28;19951;-62
2022/12/27 09:10:04;;;;;;;;;;;;;;;4.05;71.21;99095.41;5091336;28;19935;-61
2022/12/27 09:12:33;;;;;;;;;;;;;;;4.08;71.40;99099.47;5084337;27;19932;-62
2022/12/27 09:15:01;;;;;;;;;;;;;;;4.14;70.80;99095.81;5081500;28;19924;-62
2022/12/27 09:17:32;;;;;;;;;;;;;;;4.18;70.96;99096.97;5103216;28;19928;-63
2022/12/27 09:20:00;;;;;;;;;;;;;;;4.24;70.86;99103.25;5103923;27;20403;-62
2022/12/27 09:22:28;;;;;;;;;;;;;;;4.26;70.63;99107.34;5077535;27;20375;-62
2022/12/27 09:24:57;;;;;;;;;;;;;;;4.35;70.63;99111.28;5098098;28;20395;-62
2022/12/27 09:27:25;;;;;;;;;;;;;;;4.27;71.22;99110.88;5081084;28;19923;-62
2022/12/27 09:29:53;;;;;;;;;;;;;;;4.36;70.61;99123.66;5096470;28;19928;-62
2022/12/27 09:32:26;;;;;;;;;;;;;;;4.37;70.60;99130.69;5106501;28;19924;-62
2022/12/27 09:34:55;;;;;;;;;;;;;;;4.47;70.58;99132.72;5106733;28;20248;-63
2022/12/27 09:37:25;;;;;;;;;;;;;;;4.53;70.24;99139.03;5097901;28;19940;-63
2022/12/27 09:39:53;;;;;;;;;;;;;;;4.73;69.28;99132.13;5104302;28;19954;-62
2022/12/27 09:42:25;;;;;;;;;;;;;;;4.71;69.36;99128.06;5102206;28;20380;-63
2022/12/27 09:45:14;;;;;;;;;;;;;;;4.72;68.77;99135.88;5092501;28;19958;-63
2022/12/27 09:47:50;;;;;;;;;;;;;;;4.71;69.78;99126.19;5107593;28;19931;-63
2022/12/27 09:50:20;;;;;;;;;;;;;;;4.82;69.08;99129.03;5074588;28;19924;-62
2022/12/27 09:52:50;;;;;;;;;;;;;;;4.84;68.79;99135.81;5103637;28;19939;-63
2022/12/27 09:55:19;;;;;;;;;;;;;;;4.87;68.94;99129.94;5071789;28;20035;-63
2022/12/27 09:57:48;;;;;;;;;;;;;;;4.95;69.11;99134.09;5079552;28;19924;-63
2022/12/27 10:00:18;;;;;;;;;;;;;;;5.02;67.61;99133.94;5070988;28;19933;-63
2022/12/27 10:02:46;;;;;;;;;;;;;;;5.01;67.82;99122.38;5071624;28;19932;-62
2022/12/27 10:05:18;;;;;;;;;;;;;;;4.96;67.77;99124.97;5066758;28;19924;-63
2022/12/27 10:07:56;;;;;;;;;;;;;;;5.03;67.33;99122.94;5071930;28;20285;-63
2022/12/27 10:10:26;;;;;;;;;;;;;;;4.88;68.58;99122.69;5077466;28;19951;-63
2022/12/27 10:13:19;;;;;;;;;;;;;;;5.04;67.78;99127.25;5080502;28;19959;-63
2022/12/27 10:15:48;;;;;;;;;;;;;;;5.05;67.93;99128.88;5066071;28;20416;-63
2022/12/27 10:18:18;;;;;;;;;;;;;;;5.07;67.87;99128.66;5079680;28;19943;-63
2022/12/27 10:20:53;;;;;;;;;;;;;;;5.20;67.50;99128.31;5081602;28;19932;-63
2022/12/27 10:23:25;;;;;;;;;;;;;;;5.17;67.06;99120.72;5087240;28;19931;-63
2022/12/27 10:25:55;;;;;;;;;;;;;;;5.20;67.24;99123.72;5090119;28;19924;-63
2022/12/27 10:31:22;;;;;;;;;;;;;;;5.21;67.51;99111.06;5089893;28;19924;-63
2022/12/27 10:33:51;;;;;;;;;;;;;;;5.32;67.44;99117.41;5090425;28;19931;-63
2022/12/27 10:36:21;;;;;;;;;;;;;;;5.51;66.72;99116.09;5081114;28;19924;-63
2022/12/27 10:38:52;;;;;;;;;;;;;;;5.43;66.97;99119.19;5076744;28;19925;-63
2022/12/27 10:41:23;;;;;;;;;;;;;;;5.56;66.96;99118.84;5083661;28;20387;-63
2022/12/27 10:43:54;;;;;;;;;;;;;;;5.80;65.91;99119.44;5085787;28;19958;-61
2022/12/27 10:46:24;;;;;;;;;;;;;;;5.94;65.71;99115.31;5085006;28;19924;-62
2022/12/27 10:48:59;;;;;;;;;;;;;;;6.11;64.87;99114.44;5080761;28;19925;-62
2022/12/27 10:51:48;;;;;;;;;;;;;;;6.24;64.25;99114.88;5083398;28;20037;-62
2022/12/27 10:57:35;;;;;;;;;;;;;;;6.26;63.84;99098.41;5085388;28;19932;-62
2022/12/27 11:00:15;;;;;;;;;;;;;;;6.29;64.21;99097.94;5075830;28;19928;-62
2022/12/27 11:02:50;;;;;;;;;;;;;;;6.24;63.72;99109.47;5078782;28;19924;-61
2022/12/27 11:05:20;;;;;;;;;;;;;;;6.16;64.36;99098.31;5082031;28;19924;-61
2022/12/27 11:07:48;;;;;;;;;;;;;;;6.14;64.35;99095.88;5081842;28;19931;-61
2022/12/27 11:10:19;;;;;;;;;;;;;;;6.08;63.69;99096.06;5064355;28;20301;-61
2022/12/27 11:13:04;;;;;;;;;;;;;;;6.00;64.19;99091.91;5079124;28;19929;-61
2022/12/27 11:15:33;;;;;;;;;;;;;;;5.92;64.45;99095.09;5084640;28;19929;-61
2022/12/27 11:18:02;;;;;;;;;;;;;;;6.01;64.40;99096.25;5084916;28;19924;-62
2022/12/27 11:20:30;;;;;;;;;;;;;;;6.02;64.60;99101.41;5099795;28;19925;-62
2022/12/27 11:22:59;;;;;;;;;;;;;;;5.99;64.17;99101.91;5098974;28;19923;-62
2022/12/27 11:25:31;;;;;;;;;;;;;;;6.00;65.01;99100.00;5087446;28;20343;-63
2022/12/27 11:28:14;;;;;;;;;;;;;;;6.15;64.24;99100.19;5090576;28;19978;-62
2022/12/27 11:30:45;;;;;;;;;;;;;;;6.14;64.28;99103.16;5089109;28;19924;-63
2022/12/27 11:33:18;;;;;;;;;;;;;;;6.20;63.91;99094.03;5074209;28;19927;-62
2022/12/27 11:35:52;;;;;;;;;;;;;;;6.33;62.78;99096.31;5085205;28;19935;-61
2022/12/27 11:38:23;;;;;;;;;;;;;;;6.28;63.09;99088.16;5088769;28;19936;-62
2022/12/27 11:40:59;;;;;;;;;;;;;;;6.22;63.54;99081.09;5090135;28;20024;-62
2022/12/27 11:43:27;;;;;;;;;;;;;;;6.21;63.72;99080.28;5092590;28;19924;-62
2022/12/27 11:45:54;;;;;;;;;;;;;;;6.22;63.52;99079.22;5090963;28;19928;-62
2022/12/27 11:51:23;;;;;;;;;;;;;;;6.28;63.31;99080.06;5089710;28;19947;-62
2022/12/27 11:54:10;;;;;;;;;;;;;;;6.42;61.75;99075.91;5070476;28;19932;-62
2022/12/27 11:56:41;;;;;;;;;;;;;;;6.34;62.26;99072.84;5090819;28;20278;-62
2022/12/27 11:59:24;;;;;;;;;;;;;;;6.40;62.82;99069.97;5068468;28;19935;-62
2022/12/27 12:02:07;;;;;;;;;;;;;;;6.38;62.57;99065.88;5078054;28;19939;-62
2022/12/27 12:04:46;;;;;;;;;;;;;;;6.31;62.60;99076.88;5077113;28;19935;-62
2022/12/27 12:07:17;;;;;;;;;;;;;;;6.30;62.79;99070.66;5079246;28;19935;-62
2022/12/27 12:09:49;;;;;;;;;;;;;;;6.49;62.31;99081.09;5067782;28;19969;-62
2022/12/27 12:12:43;;;;;;;;;;;;;;;6.40;62.16;99075.34;5066974;28;19924;-62
2022/12/27 12:15:18;;;;;;;;;;;;;;;6.35;62.22;99066.41;5035241;28;19939;-62
2022/12/27 12:17:50;;;;;;;;;;;;;;;6.35;62.74;99075.31;5064788;28;19931;-62
2022/12/27 12:20:36;;;;;;;;;;;;;;;6.46;62.89;99070.81;5086519;28;19939;-62
2022/12/27 12:23:08;;;;;;;;;;;;;;;6.35;62.26;99067.22;5083592;28;19931;-62
2022/12/27 12:25:51;;;;;;;;;;;;;;;6.41;61.87;99059.97;5085426;28;19980;-62
2022/12/27 12:31:31;;;;;;;;;;;;;;;6.47;61.39;99059.75;5088851;28;19923;-62
2022/12/27 12:34:03;;;;;;;;;;;;;;;6.38;62.38;99057.78;5070551;28;19977;-62
2022/12/27 12:36:35;;;;;;;;;;;;;;;6.37;61.93;99059.66;5094120;28;19943;-62
2022/12/27 12:39:06;;;;;;;;;;;;;;;6.35;62.52;99056.41;5088034;28;19924;-62
2022/12/27 12:41:44;;;;;;;;;;;;;;;6.40;62.92;99063.75;5091777;28;19928;-62
2022/12/27 12:44:37;;;;;;;;;;;;;;;6.46;62.07;99055.44;5091498;28;19928;-62
2022/12/27 12:47:11;;;;;;;;;;;;;;;6.51;62.20;99058.19;5071537;28;20438;-62
2022/12/27 12:49:44;;;;;;;;;;;;;;;6.48;61.96;99065.97;5076611;28;19932;-62
2022/12/27 12:52:20;;;;;;;;;;;;;;;6.39;62.51;99062.94;5082093;28;19931;-62
2022/12/27 12:55:05;;;;;;;;;;;;;;;6.47;61.73;99059.75;5087641;28;19932;-62
2022/12/27 12:57:38;;;;;;;;;;;;;;;6.48;62.27;99055.16;5091542;28;20373;-63
2022/12/27 13:00:11;;;;;;;;;;;;;;;6.51;61.63;99060.06;5069771;28;20395;-62
2022/12/27 13:02:48;;;;;;;;;;;;;;;6.52;61.21;99050.91;5093386;28;19932;-62
2022/12/27 13:05:18;;;;;;;;;;;;;;;6.52;61.71;99045.50;5085893;28;20007;-62
2022/12/27 13:07:50;;;;;;;;;;;;;;;6.47;61.50;99048.97;5077909;28;19928;-62
2022/12/27 13:10:30;;;;;;;;;;;;;;;6.49;61.67;99051.41;5071896;28;20478;-63
2022/12/27 13:13:05;;;;;;;;;;;;;;;6.54;61.79;99054.13;5070050;28;20420;-62
2022/12/27 13:15:37;;;;;;;;;;;;;;;6.54;61.41;99049.56;5081479;28;20357;-62
2022/12/27 13:18:11;;;;;;;;;;;;;;;6.53;61.21;99049.81;5080497;28;19924;-62
2022/12/27 13:20:49;;;;;;;;;;;;;;;6.42;61.52;99051.63;5088117;28;19925;-62
2022/12/27 13:23:22;;;;;;;;;;;;;;;6.42;61.47;99048.91;5070798;28;20002;-62
2022/12/27 13:25:50;;;;;;;;;;;;;;;6.49;61.44;99048.69;5083315;28;19947;-61
2022/12/27 13:31:21;;;;;;;;;;;;;;;6.38;61.92;99053.19;5056938;28;21043;-61
2022/12/27 13:33:53;;;;;;;;;;;;;;;6.40;62.15;99050.25;5078017;28;19924;-62
2022/12/27 13:36:25;;;;;;;;;;;;;;;6.44;61.74;99045.94;5063286;28;19929;-62
2022/12/27 13:39:01;;;;;;;;;;;;;;;6.40;61.93;99052.94;5069079;28;19931;-62
2022/12/27 13:41:33;;;;;;;;;;;;;;;6.47;61.54;99050.84;5084061;28;19925;-61
2022/12/27 13:44:09;;;;;;;;;;;;;;;6.41;62.21;99057.28;5090546;28;19928;-62
2022/12/27 13:46:44;;;;;;;;;;;;;;;6.42;62.08;99053.50;5081259;28;19925;-61
2022/12/27 13:49:20;;;;;;;;;;;;;;;6.42;61.92;99051.63;5081313;28;19932;-62
2022/12/27 13:51:48;;;;;;;;;;;;;;;6.48;61.54;99050.59;5070085;28;19931;-61
2022/12/27 13:54:35;;;;;;;;;;;;;;;6.39;62.16;99049.44;5073833;28;19924;-61
2022/12/27 13:57:06;;;;;;;;;;;;;;;6.42;62.29;99058.91;5085563;28;19924;-62
2022/12/27 13:59:45;;;;;;;;;;;;;;;6.43;62.57;99057.81;5076558;28;19931;-62
2022/12/27 14:02:22;;;;;;;;;;;;;;;6.52;62.24;99061.69;5071424;28;19924;-62
2022/12/27 14:05:03;;;;;;;;;;;;;;;6.56;61.75;99052.81;5093353;28;20003;-62
2022/12/27 14:07:35;;;;;;;;;;;;;;;6.61;61.56;99060.16;5068970;28;19932;-62
2022/12/27 14:10:05;;;;;;;;;;;;;;;6.62;61.33;99050.97;5091455;28;20581;-61
2022/12/27 14:12:42;;;;;;;;;;;;;;;6.52;61.47;99050.91;5064585;28;19958;-61
2022/12/27 14:15:12;;;;;;;;;;;;;;;6.46;61.79;99054.63;5066045;28;19928;-62
2022/12/27 14:17:41;;;;;;;;;;;;;;;6.55;61.72;99056.59;5086100;28;19932;-61
2022/12/27 14:20:17;;;;;;;;;;;;;;;6.50;61.41;99066.53;5097112;28;19924;-62
2022/12/27 14:22:49;;;;;;;;;;;;;;;6.47;61.71;99075.16;5078946;28;19931;-63
2022/12/27 14:25:38;;;;;;;;;;;;;;;6.51;61.74;99074.38;5062465;28;19928;-62
2022/12/27 14:28:13;;;;;;;;;;;;;;;6.52;61.54;99083.28;5090302;28;19928;-65
2022/12/27 14:31:02;;;;;;;;;;;;;;;6.49;61.80;99089.19;5064732;28;19932;-65
2022/12/27 14:33:38;;;;;;;;;;;;;;;6.47;61.70;99084.06;5057660;28;19924;-63
2022/12/27 14:36:13;;;;;;;;;;;;;;;6.41;61.88;99092.38;5081747;28;19928;-71
2022/12/27 14:39:01;;;;;;;;;;;;;;;6.28;62.27;99089.00;5095043;28;19931;-70
2022/12/27 14:41:57;;;;;;;;;;;;;;;6.19;63.08;99084.31;5087490;28;19924;-70
2022/12/27 14:44:43;;;;;;;;;;;;;;;6.12;63.20;99092.59;5031209;28;19924;-69
2022/12/27 14:47:28;;;;;;;;;;;;;;;6.13;63.41;99096.13;5073203;28;19924;-69
2022/12/27 14:50:14;;;;;;;;;;;;;;;6.17;63.12;99087.25;5102478;22;19963;-76
2022/12/27 14:52:50;;;;;;;;;;;;;;;6.02;63.42;99087.91;5109846;28;19927;-76
2022/12/27 14:55:31;;;;;;;;;;;;;;;6.01;64.10;99086.25;5102972;28;19923;-78
2022/12/27 14:58:09;;;;;;;;;;;;;;;6.05;63.46;99086.59;5090597;28;20584;-77
2022/12/27 15:00:49;;;;;;;;;;;;;;;6.00;63.62;99083.81;5112966;28;19935;-78
2022/12/27 15:03:54;;;;;;;;;;;;;;;5.98;63.64;99089.47;5101111;28;19924;-77
2022/12/27 15:06:26;;;;;;;;;;;;;;;5.97;64.31;99082.47;5107557;28;19924;-78
2022/12/27 15:08:58;;;;;;;;;;;;;;;5.94;63.79;99087.53;5111220;28;19924;-78
2022/12/27 15:11:46;;;;;;;;;;;;;;;6.01;64.08;99088.16;5106228;28;19931;-77
2022/12/27 15:14:18;;;;;;;;;;;;;;;5.97;64.40;99087.06;5091719;28;19944;-77
2022/12/27 15:16:49;;;;;;;;;;;;;;;5.90;64.55;99092.59;5091566;28;20026;-77
2022/12/27 15:19:22;;;;;;;;;;;;;;;5.90;64.50;99094.47;5111914;28;20315;-79
2022/12/27 15:22:17;;;;;;;;;;;;;;;5.88;64.79;99096.63;5088723;28;19931;-70
2022/12/27 15:24:49;;;;;;;;;;;;;;;5.94;64.71;99087.53;5076917;28;19924;-71
2022/12/27 15:27:19;;;;;;;;;;;;;;;5.84;64.89;99085.50;5109281;28;19924;-74